This is the latest recevied weather packets stored in our database for station/object OK2PYA-5. If no packets are shown the sender has not sent any weather packets the latest 10 day(s).
| Time | Temp. | Humidity | Pressure | Rain* | Wind** | Luminosity | Snow |
|---|---|---|---|---|---|---|---|
| 1777533874 | 4.44° C | 59% | 1028.6 hPa | - | - | - | - |
| 1777531947 | 2.78° C | 66% | 1028.7 hPa | - | - | - | - |
| 1777530020 | 0.56° C | 74% | 1028.7 hPa | - | - | - | - |
| 1777528094 | -1.11° C | 81% | 1028.4 hPa | - | - | - | - |
| 1777526167 | -2.22° C | 81% | 1028.4 hPa | - | - | - | - |
| 1777524240 | -2.22° C | 80% | 1028.2 hPa | - | - | - | - |
| 1777521907 | -1.67° C | 76% | 1027.8 hPa | - | - | - | - |
| 1777519980 | -1.67° C | 78% | 1027.9 hPa | - | - | - | - |
| 1777518053 | -1.67° C | 76% | 1027.7 hPa | - | - | - | - |
| 1777516126 | -1.11° C | 75% | 1027.7 hPa | - | - | - | - |
| 1777514200 | -1.11° C | 75% | 1027.6 hPa | - | - | - | - |
| 1777512273 | -0.56° C | 73% | 1027.7 hPa | - | - | - | - |
| 1777510346 | 0° C | 70% | 1027.6 hPa | - | - | - | - |
| 1777508419 | 0.56° C | 68% | 1027.6 hPa | - | - | - | - |
| 1777506493 | 1.11° C | 65% | 1027.4 hPa | - | - | - | - |
| 1777504566 | 1.67° C | 62% | 1027.3 hPa | - | - | - | - |
| 1777502639 | 1.67° C | 61% | 1027.2 hPa | - | - | - | - |
| 1777500307 | 2.78° C | 58% | 1027 hPa | - | - | - | - |
| 1777498381 | 3.89° C | 56% | 1026.8 hPa | - | - | - | - |
| 1777496454 | 3.89° C | 55% | 1026.6 hPa | - | - | - | - |
| 1777494527 | 3.89° C | 54% | 1026.3 hPa | - | - | - | - |
| 1777492600 | 3.89° C | 52% | 1026 hPa | - | - | - | - |
| 1777490673 | 4.44° C | 49% | 1025.7 hPa | - | - | - | - |
| 1777488746 | 5° C | 46% | 1025.4 hPa | - | - | - | - |
| 1777486819 | 5.56° C | 43% | 1024.8 hPa | - | - | - | - |
* Rain since midnight (hover to see other rain measurements)
** Current wind speed in m/s (hover to see current wind gust speed)